Time;durP1;ratioP1;P1;durP2;ratioP2;P2;SDS_P1;SDS_P2;PMS_P1;PMS_P2;Temp;Humidity;BMP_temperature;BMP_pressure;BME280_temperature;BME280_humidity;BME280_pressure;Samples;Min_cycle;Max_cycle;Signal;HPM_P1;HPM_P2
2023/05/09 00:01:21;;;;;;;8.23;2.25;;;15.10;99.90;;;;;;6184942;23;20013;-81
2023/05/09 00:03:47;;;;;;;4.00;2.23;;;15.10;99.90;;;;;;6184993;23;20020;-81
2023/05/09 00:06:14;;;;;;;7.15;2.30;;;15.10;99.90;;;;;;6158637;23;20052;-80
2023/05/09 00:08:40;;;;;;;8.13;2.40;;;15.20;99.90;;;;;;6158924;23;20024;-81
2023/05/09 00:11:06;;;;;;;7.15;2.88;;;15.10;99.90;;;;;;6158658;23;20028;-85
2023/05/09 00:13:33;;;;;;;6.50;2.55;;;15.10;99.90;;;;;;6134202;23;20017;-80
2023/05/09 00:15:59;;;;;;;3.08;1.90;;;15.10;99.90;;;;;;6185353;23;20025;-80
2023/05/09 00:18:27;;;;;;;6.25;2.08;;;15.10;99.90;;;;;;6184627;23;20021;-81
2023/05/09 00:20:53;;;;;;;6.20;2.50;;;15.10;99.90;;;;;;6159086;23;20032;-80
2023/05/09 00:23:18;;;;;;;4.05;2.15;;;15.00;99.90;;;;;;6158664;23;20017;-81
2023/05/09 00:25:44;;;;;;;5.90;3.03;;;15.00;99.90;;;;;;6183449;23;20323;-80
2023/05/09 00:28:10;;;;;;;3.63;2.20;;;15.00;99.90;;;;;;6158561;23;20012;-82
2023/05/09 00:30:36;;;;;;;3.65;2.35;;;14.90;99.90;;;;;;6158655;23;20252;-81
2023/05/09 00:33:01;;;;;;;6.37;2.23;;;14.90;99.90;;;;;;6185141;23;20438;-81
2023/05/09 00:35:27;;;;;;;3.60;1.93;;;14.90;99.90;;;;;;6184347;23;20448;-81
2023/05/09 00:37:53;;;;;;;5.40;2.37;;;14.90;99.90;;;;;;6159389;23;20055;-80
2023/05/09 00:40:19;;;;;;;4.43;2.00;;;14.90;99.90;;;;;;6184715;23;20700;-81
2023/05/09 00:42:44;;;;;;;5.78;2.35;;;14.90;99.90;;;;;;6159345;23;20141;-80
2023/05/09 00:45:10;;;;;;;3.33;1.48;;;14.80;99.90;;;;;;6158718;23;20032;-84
2023/05/09 00:47:37;;;;;;;6.10;2.95;;;14.00;99.90;;;;;;6184713;23;20013;-81
2023/05/09 00:50:03;;;;;;;6.00;2.40;;;14.90;99.90;;;;;;6186383;23;20021;-81
2023/05/09 00:52:29;;;;;;;4.72;3.13;;;14.90;99.90;;;;;;6187970;23;20021;-80
2023/05/09 00:54:55;;;;;;;5.43;1.90;;;14.90;99.90;;;;;;6162042;23;20021;-80
2023/05/09 00:57:21;;;;;;;5.15;2.70;;;14.90;99.90;;;;;;6187763;23;20087;-83
2023/05/09 00:59:48;;;;;;;9.43;2.97;;;14.80;99.90;;;;;;6187893;23;20017;-80
2023/05/09 01:02:15;;;;;;;5.78;2.50;;;14.80;99.90;;;;;;6161601;23;20013;-81
2023/05/09 01:04:42;;;;;;;3.88;2.00;;;14.90;99.90;;;;;;6188368;23;20017;-80
2023/05/09 01:07:27;;;;;;;;;;;14.90;99.90;;;;;;6162446;23;20322;-80
2023/05/09 01:10:10;;;;;;;5.20;1.80;;;14.80;99.90;;;;;;6162033;23;20285;-80
2023/05/09 01:12:57;;;;;;;5.80;2.25;;;14.80;99.90;;;;;;6161565;23;20053;-80
2023/05/09 01:15:30;;;;;;;2.95;1.75;;;14.90;99.90;;;;;;6187204;23;20025;-79
2023/05/09 01:18:23;;;;;;;5.13;2.20;;;14.80;99.90;;;;;;6188357;23;20017;-80
2023/05/09 01:20:57;;;;;;;6.10;2.42;;;14.80;99.90;;;;;;6175751;23;20021;-81
2023/05/09 01:23:52;;;;;;;4.40;2.97;;;14.80;99.90;;;;;;6187899;23;20052;-81
2023/05/09 01:26:44;;;;;;;3.15;2.45;;;14.80;99.90;;;;;;6187613;23;20024;-81
2023/05/09 01:29:37;;;;;;;4.57;1.77;;;14.80;99.90;;;;;;6161370;23;20020;-80
2023/05/09 01:32:08;;;;;;;4.03;1.75;;;14.80;99.90;;;;;;6162185;23;20393;-80
2023/05/09 01:34:36;;;;;;;2.97;1.77;;;14.80;99.90;;;;;;6161299;23;20056;-81
2023/05/09 01:37:04;;;;;;;3.90;2.30;;;14.90;99.90;;;;;;6188167;23;20067;-80
2023/05/09 01:39:32;;;;;;;4.88;1.83;;;14.80;99.90;;;;;;6187814;23;20017;-80
2023/05/09 01:42:01;;;;;;;4.30;2.55;;;14.90;99.90;;;;;;6162275;23;20013;-80
2023/05/09 01:44:34;;;;;;;2.38;1.52;;;14.80;99.90;;;;;;6187821;23;20023;-81
2023/05/09 01:47:01;;;;;;;5.07;2.03;;;14.80;99.90;;;;;;6188045;23;20021;-81
2023/05/09 01:49:34;;;;;;;8.60;3.50;;;14.80;99.90;;;;;;6112409;23;20075;-80
2023/05/09 01:52:04;;;;;;;6.30;2.17;;;14.80;99.90;;;;;;6188174;23;20089;-81
2023/05/09 01:54:31;;;;;;;6.50;3.60;;;14.90;99.90;;;;;;6161063;23;20067;-80
2023/05/09 01:56:57;;;;;;;;;;;14.80;99.90;;;;;;6162572;23;20100;-80
2023/05/09 01:59:25;;;;;;;6.35;2.65;;;14.90;99.90;;;;;;6187580;23;19916;-81
2023/05/09 02:01:53;;;;;;;3.38;1.90;;;14.90;99.90;;;;;;6186973;23;20017;-80
2023/05/09 02:04:20;;;;;;;2.40;1.55;;;14.80;99.90;;;;;;6186354;23;20442;-84
2023/05/09 02:06:51;;;;;;;3.55;2.35;;;14.80;99.90;;;;;;6186444;23;20071;-80
2023/05/09 02:09:18;;;;;;;3.30;1.33;;;14.80;99.90;;;;;;6159809;23;20045;-81
2023/05/09 02:11:45;;;;;;;3.15;2.08;;;14.80;99.90;;;;;;6159713;23;20017;-80
2023/05/09 02:14:12;;;;;;;5.45;2.58;;;14.80;99.90;;;;;;6159852;23;20040;-80
2023/05/09 02:16:38;;;;;;;7.47;2.20;;;14.80;99.90;;;;;;6159580;23;20094;-80
2023/05/09 02:19:05;;;;;;;5.03;2.70;;;14.80;99.90;;;;;;6160074;23;20099;-80
2023/05/09 02:21:30;;;;;;;4.22;2.58;;;14.70;99.90;;;;;;6159589;23;20044;-81
2023/05/09 02:23:57;;;;;;;6.25;2.42;;;14.70;99.90;;;;;;6135158;23;20016;-80
2023/05/09 02:26:24;;;;;;;6.65;2.28;;;14.70;99.90;;;;;;6186167;23;20016;-84
2023/05/09 02:28:51;;;;;;;5.00;1.90;;;14.80;99.90;;;;;;6160191;23;20019;-80
2023/05/09 02:31:19;;;;;;;5.65;2.67;;;14.70;99.90;;;;;;6186323;23;20036;-80
2023/05/09 02:33:46;;;;;;;4.25;2.80;;;14.70;99.90;;;;;;6159587;23;20025;-81
2023/05/09 02:36:15;;;;;;;6.70;2.00;;;14.60;99.90;;;;;;6160087;23;20103;-81
2023/05/09 02:38:42;;;;;;;5.28;2.65;;;14.60;99.90;;;;;;6185738;23;20021;-81
2023/05/09 02:41:13;;;;;;;6.47;2.60;;;14.50;99.90;;;;;;6159934;23;20053;-81
2023/05/09 02:48:50;;;;;;;3.70;2.42;;;14.50;99.90;;;;;;6147418;23;19916;-80
2023/05/09 02:51:16;;;;;;;5.40;3.20;;;14.50;99.90;;;;;;6134544;23;20100;-80
2023/05/09 02:53:42;;;;;;;5.95;2.55;;;14.50;99.90;;;;;;6158341;23;20059;-80
2023/05/09 02:56:08;;;;;;;3.80;2.15;;;14.50;99.90;;;;;;6159484;23;20017;-80
2023/05/09 02:58:34;;;;;;;;;;;14.50;99.90;;;;;;6158949;23;20447;-80
2023/05/09 03:00:59;;;;;;;3.33;1.95;;;14.50;99.90;;;;;;6159757;23;19916;-79
2023/05/09 03:03:25;;;;;;;4.53;2.17;;;14.50;99.90;;;;;;6134163;23;20053;-81
2023/05/09 03:05:51;;;;;;;4.50;1.77;;;13.40;99.90;;;;;;6158802;23;20712;-79
2023/05/09 03:08:16;;;;;;;6.07;1.87;;;14.50;99.90;;;;;;6159066;23;20103;-79
2023/05/09 03:10:42;;;;;;;5.03;2.27;;;14.60;99.90;;;;;;6133460;23;20639;-79
2023/05/09 03:13:08;;;;;;;4.07;2.40;;;14.60;99.90;;;;;;6158935;23;20028;-80
2023/05/09 03:15:33;;;;;;;3.08;2.72;;;14.60;99.90;;;;;;6158529;23;20044;-80
2023/05/09 03:17:59;;;;;;;4.87;1.90;;;14.60;99.90;;;;;;6158534;23;20021;-80
2023/05/09 03:20:26;;;;;;;5.17;2.37;;;14.60;99.90;;;;;;6109927;23;20459;-83
2023/05/09 03:22:52;;;;;;;7.22;2.80;;;14.60;99.90;;;;;;6158409;23;20017;-80
2023/05/09 03:25:17;;;;;;;6.10;2.03;;;14.60;99.90;;;;;;6135017;23;20028;-80
2023/05/09 03:27:43;;;;;;;3.75;1.90;;;14.60;99.90;;;;;;6109070;23;20040;-80
2023/05/09 03:30:09;;;;;;;5.50;2.33;;;14.70;99.90;;;;;;6159490;23;20024;-79
2023/05/09 03:32:35;;;;;;;4.88;2.65;;;14.70;99.90;;;;;;6133866;23;20024;-80
2023/05/09 03:35:01;;;;;;;6.33;2.77;;;14.60;99.90;;;;;;6134638;23;20017;-80
2023/05/09 03:37:26;;;;;;;3.93;2.07;;;14.60;99.90;;;;;;6158406;23;20510;-83
2023/05/09 03:39:52;;;;;;;6.30;2.43;;;14.60;99.90;;;;;;6134649;23;20272;-79
2023/05/09 03:42:18;;;;;;;3.50;2.03;;;14.50;99.90;;;;;;6134570;23;20252;-80
2023/05/09 03:44:44;;;;;;;4.20;2.33;;;14.50;99.90;;;;;;6134178;23;20245;-80
2023/05/09 03:47:09;;;;;;;5.53;2.83;;;14.60;99.90;;;;;;6109796;23;20383;-80
2023/05/09 03:49:35;;;;;;;3.63;1.80;;;14.60;99.90;;;;;;6133734;23;20021;-80
2023/05/09 03:52:02;;;;;;;6.53;2.63;;;14.50;99.90;;;;;;6158944;23;20096;-80
2023/05/09 03:54:28;;;;;;;3.70;1.85;;;14.50;99.90;;;;;;6159236;23;20017;-80
2023/05/09 03:56:53;;;;;;;5.33;2.47;;;14.50;99.90;;;;;;6158162;23;20017;-80
2023/05/09 03:59:19;;;;;;;5.80;2.27;;;14.60;99.90;;;;;;6158991;23;20081;-80
2023/05/09 04:01:45;;;;;;;4.60;2.28;;;14.50;99.90;;;;;;6134000;23;20101;-79
2023/05/09 04:04:11;;;;;;;4.60;1.83;;;14.50;99.90;;;;;;6134675;23;20059;-80
2023/05/09 04:06:36;;;;;;;4.00;1.77;;;14.40;99.90;;;;;;6184992;23;20072;-80
2023/05/09 04:09:02;;;;;;;2.63;1.42;;;14.50;99.90;;;;;;6134210;23;20440;-80
2023/05/09 04:11:28;;;;;;;4.80;2.40;;;14.40;99.90;;;;;;6158339;23;20059;-80
2023/05/09 04:13:54;;;;;;;2.60;1.53;;;14.40;99.90;;;;;;6182789;23;20452;-80
2023/05/09 04:16:19;;;;;;;3.60;2.30;;;14.40;99.90;;;;;;6134052;23;20021;-80
2023/05/09 04:18:45;;;;;;;3.43;1.60;;;14.40;99.90;;;;;;6158479;23;20017;-80
2023/05/09 04:21:11;;;;;;;3.37;1.50;;;14.40;99.90;;;;;;6158782;23;20467;-80
2023/05/09 04:23:37;;;;;;;6.10;2.53;;;14.50;99.90;;;;;;6109049;23;20012;-80
2023/05/09 04:26:03;;;;;;;2.90;1.90;;;14.50;99.90;;;;;;6157913;23;20053;-81
2023/05/09 04:28:29;;;;;;;3.60;1.70;;;13.70;99.90;;;;;;6158441;23;20020;-80
2023/05/09 04:30:55;;;;;;;3.97;1.43;;;14.50;99.90;;;;;;6158219;23;20013;-80
2023/05/09 04:33:21;;;;;;;3.83;2.10;;;14.50;99.90;;;;;;6185018;23;20087;-80
2023/05/09 04:35:47;;;;;;;4.50;1.27;;;14.50;99.90;;;;;;6158126;23;20024;-81
2023/05/09 04:38:13;;;;;;;5.10;2.28;;;14.50;99.90;;;;;;6158094;23;20027;-80
2023/05/09 04:40:38;;;;;;;3.47;1.83;;;14.50;99.90;;;;;;6184028;23;20025;-80
2023/05/09 04:43:04;;;;;;;2.10;1.43;;;14.50;99.90;;;;;;6134348;23;20097;-80
2023/05/09 04:45:30;;;;;;;6.28;2.30;;;14.50;99.90;;;;;;6184806;23;20448;-80
2023/05/09 04:47:56;;;;;;;3.22;1.90;;;14.60;99.90;;;;;;6133293;23;20025;-81
2023/05/09 04:50:22;;;;;;;3.13;1.52;;;14.60;99.90;;;;;;6158781;23;20013;-80
2023/05/09 04:52:48;;;;;;;3.15;1.25;;;14.60;99.90;;;;;;6158477;23;20044;-81
2023/05/09 04:55:13;;;;;;;3.37;1.83;;;14.60;99.90;;;;;;6133879;23;20103;-81
2023/05/09 04:57:39;;;;;;;4.40;1.77;;;14.60;99.90;;;;;;6157833;23;20017;-81
2023/05/09 05:00:06;;;;;;;3.97;1.90;;;14.60;99.90;;;;;;6158343;23;20272;-81
2023/05/09 05:02:32;;;;;;;4.57;2.15;;;14.60;99.90;;;;;;6158418;23;20123;-80
2023/05/09 05:04:58;;;;;;;3.87;1.47;;;14.60;99.90;;;;;;6158081;23;20021;-80
2023/05/09 05:07:23;;;;;;;3.47;2.30;;;14.60;99.90;;;;;;6133701;23;20268;-80
2023/05/09 05:09:49;;;;;;;2.53;1.50;;;14.60;99.90;;;;;;6133337;23;20049;-80
2023/05/09 05:12:15;;;;;;;1.57;1.43;;;14.60;99.90;;;;;;6134133;23;20444;-80
2023/05/09 05:14:40;;;;;;;4.07;1.75;;;14.60;99.90;;;;;;6208112;23;20044;-81
2023/05/09 05:17:07;;;;;;;3.37;1.80;;;14.60;99.90;;;;;;6157913;23;20017;-80
2023/05/09 05:19:33;;;;;;;2.83;1.60;;;14.60;99.90;;;;;;6158641;23;20308;-81
2023/05/09 05:21:58;;;;;;;3.92;2.42;;;14.60;99.90;;;;;;6158132;23;20371;-81
2023/05/09 05:24:24;;;;;;;4.00;1.67;;;14.50;99.90;;;;;;6133676;23;20021;-81
2023/05/09 05:26:50;;;;;;;3.95;1.55;;;14.60;99.90;;;;;;6133520;23;20067;-81
2023/05/09 05:29:16;;;;;;;2.97;2.13;;;14.50;99.90;;;;;;6133144;23;20441;-81
2023/05/09 05:31:42;;;;;;;3.83;1.75;;;14.50;99.90;;;;;;6136063;23;20316;-81
2023/05/09 05:34:08;;;;;;;2.37;1.43;;;14.50;99.90;;;;;;6133184;23;20071;-81
2023/05/09 05:36:33;;;;;;;1.93;1.10;;;14.50;99.90;;;;;;6133486;23;20021;-82
2023/05/09 05:38:59;;;;;;;4.70;1.73;;;14.40;99.90;;;;;;6134692;23;20083;-82
2023/05/09 05:41:25;;;;;;;3.47;1.67;;;14.40;99.90;;;;;;6160077;23;20021;-81
2023/05/09 05:43:50;;;;;;;2.17;1.52;;;14.30;99.90;;;;;;6134274;23;20395;-83
2023/05/09 05:46:16;;;;;;;3.95;1.40;;;14.30;99.90;;;;;;6162335;23;20013;-82
2023/05/09 05:48:42;;;;;;;2.13;1.30;;;14.30;99.90;;;;;;6158992;23;20028;-84
2023/05/09 05:51:07;;;;;;;2.57;1.43;;;14.30;99.90;;;;;;6159282;23;20056;-83
2023/05/09 05:53:33;;;;;;;2.57;1.43;;;14.30;99.90;;;;;;6159758;23;20085;-82
2023/05/09 05:55:59;;;;;;;1.93;1.20;;;14.30;99.90;;;;;;6159156;23;20479;-81
2023/05/09 05:58:25;;;;;;;2.27;1.43;;;14.30;99.90;;;;;;6159507;23;20260;-81
2023/05/09 06:00:51;;;;;;;2.80;1.55;;;14.30;99.90;;;;;;6162013;23;20017;-81
2023/05/09 06:03:17;;;;;;;1.48;0.88;;;14.30;99.90;;;;;;6159332;23;20024;-82
2023/05/09 06:05:43;;;;;;;3.07;1.87;;;14.30;99.90;;;;;;6160028;23;20075;-80
2023/05/09 06:08:09;;;;;;;3.95;1.58;;;14.30;99.90;;;;;;6158537;23;20091;-83
2023/05/09 06:10:34;;;;;;;4.33;1.60;;;14.30;99.90;;;;;;6133907;23;20457;-84
2023/05/09 06:13:00;;;;;;;2.08;1.00;;;14.30;99.90;;;;;;6133876;23;20057;-83
2023/05/09 06:15:26;;;;;;;2.27;1.53;;;14.30;99.90;;;;;;6159155;23;20020;-83
2023/05/09 06:17:52;;;;;;;3.53;1.93;;;14.30;99.90;;;;;;6134053;23;20245;-83
2023/05/09 06:20:18;;;;;;;3.40;0.85;;;14.40;99.90;;;;;;6158104;23;20076;-80
2023/05/09 06:22:44;;;;;;;3.50;2.00;;;14.40;99.90;;;;;;6184416;23;20348;-80
2023/05/09 06:25:09;;;;;;;5.60;2.65;;;14.50;99.90;;;;;;6109859;23;20249;-81
2023/05/09 06:27:35;;;;;;;3.30;1.80;;;14.50;99.90;;;;;;6135035;23;20024;-81
2023/05/09 06:30:01;;;;;;;2.30;0.80;;;14.50;99.90;;;;;;6184341;23;20452;-81
2023/05/09 06:32:26;;;;;;;2.53;1.87;;;14.50;99.90;;;;;;6159323;23;20013;-81
2023/05/09 06:34:52;;;;;;;3.90;1.90;;;14.60;99.90;;;;;;6185534;23;20525;-81
2023/05/09 06:37:18;;;;;;;4.57;2.10;;;14.60;99.90;;;;;;6159424;23;20032;-81
2023/05/09 06:39:44;;;;;;;5.90;2.70;;;14.60;99.90;;;;;;6159648;23;20021;-81
2023/05/09 06:42:09;;;;;;;5.45;2.15;;;14.60;99.90;;;;;;6110142;23;20083;-81
2023/05/09 06:44:35;;;;;;;5.17;1.57;;;14.70;99.90;;;;;;6134281;23;20021;-81
2023/05/09 06:47:01;;;;;;;2.07;1.40;;;14.70;99.90;;;;;;6085408;23;20017;-83
2023/05/09 06:49:26;;;;;;;5.93;2.42;;;14.70;99.90;;;;;;6158675;23;20383;-83
2023/05/09 06:51:52;;;;;;;4.13;2.05;;;14.80;99.90;;;;;;6183341;23;20013;-82
2023/05/09 06:54:18;;;;;;;5.53;2.67;;;14.80;99.90;;;;;;6109990;23;20048;-83
2023/05/09 06:56:43;;;;;;;3.97;2.20;;;14.80;99.90;;;;;;6134488;23;20576;-84
2023/05/09 06:59:12;;;;;;;5.20;2.13;;;14.90;99.90;;;;;;6158527;23;20021;-81
2023/05/09 07:01:39;;;;;;;3.88;1.98;;;14.90;99.90;;;;;;6160356;23;20240;-83
2023/05/09 07:04:05;;;;;;;5.32;1.95;;;14.90;99.90;;;;;;6184339;23;20380;-84
2023/05/09 07:06:30;;;;;;;3.57;1.30;;;14.90;99.90;;;;;;6134567;23;20021;-80
2023/05/09 07:08:56;;;;;;;5.30;2.37;;;14.80;99.90;;;;;;6184769;23;20375;-85
2023/05/09 07:11:22;;;;;;;2.70;1.30;;;14.80;99.90;;;;;;6133787;23;20143;-85
2023/05/09 07:13:48;;;;;;;4.32;1.95;;;14.80;99.90;;;;;;6158679;23;20021;-85
2023/05/09 07:16:14;;;;;;;5.65;2.20;;;14.80;99.90;;;;;;6159102;23;20025;-84
2023/05/09 07:18:40;;;;;;;4.05;1.40;;;14.90;99.90;;;;;;6159589;23;20023;-84
2023/05/09 07:21:06;;;;;;;2.90;1.60;;;14.80;99.90;;;;;;6159307;23;20507;-84
2023/05/09 07:23:32;;;;;;;5.32;2.63;;;14.80;99.90;;;;;;6134875;23;20021;-83
2023/05/09 07:25:58;;;;;;;3.30;1.63;;;14.80;99.90;;;;;;6158938;23;20100;-84
2023/05/09 07:28:24;;;;;;;4.28;2.53;;;14.80;99.90;;;;;;6159165;23;20032;-84
2023/05/09 07:30:50;;;;;;;2.53;1.92;;;14.80;99.90;;;;;;6110617;23;20017;-84
2023/05/09 07:33:16;;;;;;;3.58;1.90;;;14.90;99.90;;;;;;6133500;23;20468;-83
2023/05/09 07:35:42;;;;;;;4.97;2.40;;;14.90;99.90;;;;;;6110788;23;20024;-84
2023/05/09 07:38:07;;;;;;;3.70;2.10;;;14.90;99.90;;;;;;6110156;23;20448;-84
2023/05/09 07:40:35;;;;;;;3.53;1.93;;;15.00;99.90;;;;;;6209494;23;20276;-83
2023/05/09 07:43:01;;;;;;;6.18;2.20;;;15.00;99.90;;;;;;6136504;23;20097;-81
2023/05/09 07:45:26;;;;;;;3.13;2.13;;;15.10;99.90;;;;;;6137226;23;20017;-81
2023/05/09 07:47:52;;;;;;;4.30;1.73;;;15.10;99.90;;;;;;6159350;23;20016;-84
2023/05/09 07:50:18;;;;;;;4.25;2.13;;;15.20;99.90;;;;;;6185122;23;20032;-84
2023/05/09 07:52:43;;;;;;;3.70;2.00;;;15.30;99.90;;;;;;6134868;23;20025;-85
2023/05/09 07:55:11;;;;;;;5.90;2.07;;;15.30;99.90;;;;;;6109916;23;20616;-84
2023/05/09 07:57:38;;;;;;;4.70;2.28;;;15.30;99.90;;;;;;6134550;23;20476;-84
2023/05/09 08:00:05;;;;;;;3.92;2.17;;;15.40;99.90;;;;;;6158635;23;20325;-84
2023/05/09 08:02:31;;;;;;;3.40;1.85;;;15.40;99.90;;;;;;6158494;23;20139;-84
2023/05/09 08:04:57;;;;;;;3.70;2.08;;;15.40;99.90;;;;;;6110084;23;20052;-82
2023/05/09 08:07:22;;;;;;;4.20;1.98;;;15.40;99.90;;;;;;6158416;23;20021;-82
2023/05/09 08:09:48;;;;;;;5.07;1.83;;;15.40;99.90;;;;;;6159063;23;20024;-83
2023/05/09 08:12:14;;;;;;;4.35;2.08;;;15.50;99.90;;;;;;6208294;23;20060;-82
2023/05/09 08:14:40;;;;;;;4.85;2.15;;;15.50;99.90;;;;;;6162774;23;20052;-82
2023/05/09 08:17:05;;;;;;;6.13;1.88;;;15.60;99.90;;;;;;6159296;23;20013;-82
2023/05/09 08:19:31;;;;;;;5.77;1.97;;;15.60;99.90;;;;;;6158577;23;20091;-83
2023/05/09 08:21:57;;;;;;;6.20;2.30;;;15.60;99.90;;;;;;6158814;23;20021;-83
2023/05/09 08:24:22;;;;;;;5.57;2.67;;;15.70;99.90;;;;;;6158154;23;20017;-83
2023/05/09 08:26:48;;;;;;;5.07;2.13;;;15.80;99.90;;;;;;6110034;23;20092;-83
2023/05/09 08:29:15;;;;;;;4.40;2.38;;;15.80;99.90;;;;;;6109218;23;20441;-82
2023/05/09 08:31:41;;;;;;;6.45;2.25;;;15.90;99.90;;;;;;6163413;23;20020;-82
2023/05/09 08:34:06;;;;;;;4.35;2.08;;;16.00;99.90;;;;;;6109831;23;20102;-84
2023/05/09 08:36:32;;;;;;;6.17;2.80;;;16.00;99.90;;;;;;6134414;23;20025;-81
2023/05/09 08:38:58;;;;;;;7.25;2.90;;;16.10;99.90;;;;;;6134225;23;20070;-83
2023/05/09 08:41:26;;;;;;;5.47;3.27;;;16.10;99.90;;;;;;6208232;23;20091;-81
2023/05/09 08:43:53;;;;;;;4.28;2.22;;;16.20;99.90;;;;;;6158569;23;20440;-83
2023/05/09 08:46:23;;;;;;;5.68;2.28;;;16.20;99.90;;;;;;6184752;23;20021;-81
2023/05/09 08:48:50;;;;;;;3.47;2.42;;;16.30;99.90;;;;;;6155332;23;20437;-80
2023/05/09 08:51:16;;;;;;;;;;;16.30;99.90;;;;;;6158791;23;20028;-81
2023/05/09 08:53:43;;;;;;;4.68;1.63;;;16.30;99.90;;;;;;6110217;23;19916;-81
2023/05/09 08:56:09;;;;;;;4.28;2.25;;;16.40;99.90;;;;;;6157503;23;20024;-82
2023/05/09 08:58:35;;;;;;;4.22;2.63;;;16.40;99.90;;;;;;6158605;23;20021;-82
2023/05/09 09:01:05;;;;;;;;;;;16.40;99.90;;;;;;6158820;23;20028;-82
2023/05/09 09:03:31;;;;;;;5.63;2.47;;;16.40;99.90;;;;;;6158965;23;19924;-82
2023/05/09 09:05:57;;;;;;;4.35;1.95;;;16.50;99.90;;;;;;6134418;23;20013;-82
2023/05/09 09:08:25;;;;;;;3.90;2.33;;;16.50;99.90;;;;;;6157805;23;20469;-82
2023/05/09 09:10:51;;;;;;;3.15;1.95;;;16.60;99.90;;;;;;6134956;23;20448;-82
2023/05/09 09:13:17;;;;;;;;;;;16.60;99.90;;;;;;6159343;23;20043;-82
2023/05/09 09:15:45;;;;;;;3.40;1.73;;;16.70;99.90;;;;;;6159149;23;19990;-81
2023/05/09 09:18:13;;;;;;;2.22;1.40;;;16.70;99.90;;;;;;6159904;23;20013;-82
2023/05/09 09:20:50;;;;;;;3.50;2.08;;;16.70;99.90;;;;;;6160071;23;20013;-81
2023/05/09 09:23:17;;;;;;;;;;;16.70;99.90;;;;;;6136018;23;20025;-82
2023/05/09 09:25:46;;;;;;;3.97;2.35;;;16.70;99.90;;;;;;6160704;23;20250;-81
2023/05/09 09:28:11;;;;;;;5.40;2.17;;;16.80;99.90;;;;;;6160107;23;20024;-81
2023/05/09 09:30:48;;;;;;;5.47;2.38;;;16.80;99.90;;;;;;6160559;23;20021;-81
2023/05/09 09:33:27;;;;;;;4.05;2.35;;;16.80;99.90;;;;;;6135158;23;20021;-82
2023/05/09 09:35:54;;;;;;;2.72;1.45;;;16.90;99.90;;;;;;6135988;23;20017;-81
2023/05/09 09:38:22;;;;;;;2.65;2.38;;;17.00;99.90;;;;;;6135575;23;20024;-81
2023/05/09 09:40:58;;;;;;;3.58;2.00;;;17.10;99.90;;;;;;6160555;23;20072;-81
2023/05/09 09:43:28;;;;;;;4.10;2.08;;;17.10;99.90;;;;;;6186541;23;20068;-81
2023/05/09 09:45:55;;;;;;;2.33;1.25;;;17.10;99.90;;;;;;6160551;23;20025;-81
2023/05/09 09:48:34;;;;;;;7.53;2.55;;;17.10;99.90;;;;;;6160699;23;20013;-83
2023/05/09 09:51:10;;;;;;;5.57;2.30;;;17.10;99.90;;;;;;6187085;23;20056;-81
2023/05/09 09:53:40;;;;;;;5.28;2.25;;;17.00;99.90;;;;;;6160846;23;20464;-82
2023/05/09 09:56:07;;;;;;;2.40;2.15;;;17.00;99.90;;;;;;6135928;23;20391;-82
2023/05/09 09:58:33;;;;;;;6.20;2.28;;;16.90;99.90;;;;;;6160305;23;20391;-83
2023/05/09 10:01:07;;;;;;;3.40;1.80;;;16.90;99.90;;;;;;6135267;23;20024;-82
2023/05/09 10:03:41;;;;;;;2.00;1.80;;;16.90;99.90;;;;;;6159194;23;20448;-82
2023/05/09 10:06:11;;;;;;;2.85;1.77;;;17.00;99.90;;;;;;6160316;23;20017;-82
2023/05/09 10:08:37;;;;;;;3.85;1.52;;;17.10;99.90;;;;;;6135077;23;20028;-82
2023/05/09 10:11:03;;;;;;;3.67;1.80;;;17.30;99.90;;;;;;6135609;23;20347;-81
2023/05/09 10:13:29;;;;;;;5.10;2.05;;;17.60;99.90;;;;;;6159628;23;20017;-82
2023/05/09 10:15:57;;;;;;;3.08;1.75;;;17.80;99.90;;;;;;6160206;23;20071;-82
2023/05/09 10:18:27;;;;;;;2.75;1.40;;;17.80;99.90;;;;;;6158528;23;20056;-83
2023/05/09 10:20:55;;;;;;;3.85;2.22;;;17.90;99.90;;;;;;6133695;23;20028;-82
2023/05/09 10:23:22;;;;;;;2.97;1.65;;;17.90;99.90;;;;;;6132829;23;20528;-81
2023/05/09 10:25:58;;;;;;;4.72;1.50;;;18.00;99.90;;;;;;6158537;23;20071;-81
2023/05/09 10:28:30;;;;;;;3.87;1.80;;;18.10;99.90;;;;;;6158187;23;20433;-81
2023/05/09 10:31:23;;;;;;;2.22;1.27;;;18.20;99.90;;;;;;6158636;23;20043;-81
2023/05/09 10:33:49;;;;;;;3.50;2.17;;;18.30;99.90;;;;;;6158472;23;20021;-81
2023/05/09 10:36:20;;;;;;;2.35;1.55;;;18.40;99.90;;;;;;6158809;23;20024;-82
2023/05/09 10:38:47;;;;;;;5.40;2.05;;;18.40;99.90;;;;;;6134053;23;20440;-83
2023/05/09 10:41:14;;;;;;;6.18;2.13;;;18.40;99.90;;;;;;6156370;23;20017;-82
2023/05/09 10:43:41;;;;;;;3.70;2.42;;;18.50;99.90;;;;;;6157632;23;20021;-82
2023/05/09 10:46:07;;;;;;;3.08;1.60;;;18.60;99.90;;;;;;6158638;23;20020;-81
2023/05/09 10:48:33;;;;;;;;;;;18.60;99.90;;;;;;6157934;23;20021;-81
2023/05/09 10:51:01;;;;;;;2.63;1.98;;;18.70;99.90;;;;;;6159463;23;19938;-81
2023/05/09 10:53:42;;;;;;;2.88;1.88;;;18.80;99.90;;;;;;6134265;23;20060;-82
2023/05/09 10:56:08;;;;;;;2.28;1.25;;;18.90;99.90;;;;;;6159124;23;20076;-81
2023/05/09 10:58:39;;;;;;;5.55;2.20;;;18.80;99.90;;;;;;6157562;23;20376;-82
2023/05/09 11:01:05;;;;;;;2.22;1.38;;;18.80;99.90;;;;;;6133963;23;20021;-81
2023/05/09 11:03:50;;;;;;;;;;;18.70;99.90;;;;;;6159152;23;20340;-82
2023/05/09 11:06:42;;;;;;;3.08;1.38;;;18.60;99.90;;;;;;6158851;23;19916;-82
2023/05/09 11:09:33;;;;;;;4.32;1.77;;;18.60;99.90;;;;;;6159008;23;20360;-82
2023/05/09 11:12:11;;;;;;;2.28;1.52;;;18.60;99.90;;;;;;6144060;23;20489;-81
2023/05/09 11:14:48;;;;;;;4.50;1.85;;;18.50;99.90;;;;;;6158674;23;20025;-83
2023/05/09 11:17:20;;;;;;;3.80;1.83;;;18.60;99.90;;;;;;6134676;23;20025;-82
2023/05/09 11:19:45;;;;;;;3.30;1.40;;;18.70;99.90;;;;;;6159731;23;20013;-82
2023/05/09 11:22:27;;;;;;;4.22;2.38;;;18.80;99.90;;;;;;6159356;23;20017;-83
2023/05/09 11:25:08;;;;;;;3.25;1.48;;;18.90;99.90;;;;;;6159621;23;20013;-82
2023/05/09 11:27:38;;;;;;;5.65;1.83;;;18.90;99.90;;;;;;6185378;23;20024;-83
2023/05/09 11:30:05;;;;;;;4.30;1.85;;;18.90;99.90;;;;;;6134838;23;20080;-82
2023/05/09 11:32:33;;;;;;;3.95;2.42;;;18.90;99.90;;;;;;6134372;23;20013;-82
2023/05/09 11:35:13;;;;;;;3.65;1.52;;;18.90;99.90;;;;;;6158327;23;20428;-82
2023/05/09 11:37:47;;;;;;;1.70;1.48;;;18.80;99.90;;;;;;6159100;23;20017;-82
2023/05/09 11:40:16;;;;;;;2.55;1.70;;;18.70;99.90;;;;;;6134955;23;20025;-83
2023/05/09 11:42:52;;;;;;;4.80;2.38;;;18.70;99.90;;;;;;6158951;23;20353;-83
2023/05/09 11:45:19;;;;;;;2.60;1.48;;;18.50;99.90;;;;;;6159186;23;20079;-83
2023/05/09 11:47:49;;;;;;;3.15;1.52;;;18.50;99.90;;;;;;6158674;23;20053;-83
2023/05/09 11:50:16;;;;;;;2.65;1.67;;;18.40;99.90;;;;;;6134442;23;20056;-83
2023/05/09 11:52:42;;;;;;;3.20;2.10;;;18.40;99.90;;;;;;6158114;23;20088;-83
2023/05/09 11:55:13;;;;;;;2.67;1.50;;;18.40;99.90;;;;;;6159277;23;20037;-83
2023/05/09 11:57:45;;;;;;;3.63;2.42;;;18.50;99.90;;;;;;6134164;23;20340;-82
2023/05/09 12:00:11;;;;;;;3.78;1.92;;;18.60;99.90;;;;;;6160428;23;20024;-82
2023/05/09 12:02:37;;;;;;;;;;;18.60;99.90;;;;;;6136511;23;20075;-82
2023/05/09 12:05:08;;;;;;;4.50;1.52;;;18.60;99.90;;;;;;6159230;23;19916;-83
2023/05/09 12:07:34;;;;;;;2.80;1.92;;;18.70;99.90;;;;;;6137429;23;20017;-83
2023/05/09 12:10:03;;;;;;;3.05;1.52;;;18.90;99.90;;;;;;6160846;23;20048;-83
2023/05/09 12:12:28;;;;;;;4.25;2.38;;;18.90;99.90;;;;;;6157977;23;20029;-83
2023/05/09 12:14:54;;;;;;;2.67;1.75;;;19.00;99.90;;;;;;6133758;23;20517;-83
2023/05/09 12:17:21;;;;;;;4.70;1.73;;;19.20;99.90;;;;;;6158224;23;20017;-83
2023/05/09 12:19:47;;;;;;;1.73;1.48;;;19.30;99.90;;;;;;6157606;23;20396;-83
2023/05/09 12:22:12;;;;;;;2.58;1.63;;;19.40;99.90;;;;;;6134246;23;20027;-82
2023/05/09 12:24:38;;;;;;;3.90;1.77;;;19.50;99.90;;;;;;6185004;23;20092;-82
2023/05/09 12:27:04;;;;;;;3.03;1.80;;;19.60;99.90;;;;;;6109234;23;20344;-82
2023/05/09 12:29:30;;;;;;;3.13;2.13;;;19.60;99.90;;;;;;6157873;23;20463;-82
2023/05/09 12:31:58;;;;;;;6.03;2.50;;;19.60;99.90;;;;;;6158340;23;20375;-82
2023/05/09 12:34:24;;;;;;;4.35;2.03;;;19.60;99.90;;;;;;6157930;23;20021;-82
2023/05/09 12:36:50;;;;;;;4.30;1.75;;;19.60;99.90;;;;;;6184303;23;20020;-82
2023/05/09 12:39:18;;;;;;;2.30;1.70;;;19.60;99.90;;;;;;6157857;23;20020;-82
2023/05/09 12:41:48;;;;;;;2.38;1.42;;;19.50;99.90;;;;;;6157989;23;20179;-82
2023/05/09 12:44:21;;;;;;;1.45;1.10;;;19.50;99.90;;;;;;6158255;23;20021;-82
2023/05/09 12:47:13;;;;;;;2.08;1.58;;;19.50;99.90;;;;;;6157378;23;20020;-82
2023/05/09 12:49:39;;;;;;;2.22;1.50;;;19.50;99.90;;;;;;6176478;23;20031;-82
2023/05/09 12:52:15;;;;;;;1.17;0.95;;;19.40;99.90;;;;;;6133998;23;20056;-82
2023/05/09 12:54:46;;;;;;;3.33;1.55;;;19.40;99.90;;;;;;6183971;23;20013;-82
2023/05/09 12:57:21;;;;;;;3.22;1.30;;;19.30;99.90;;;;;;6133518;23;20040;-82
2023/05/09 12:59:47;;;;;;;1.27;0.80;;;19.30;99.90;;;;;;6133135;23;20083;-82